createdAt,value
2023-02-09T00:00:41.592Z,46.10
2023-02-09T00:03:13.092Z,45.10
2023-02-09T00:05:44.122Z,44.80
2023-02-09T00:08:15.475Z,46.50
2023-02-09T00:10:46.606Z,49.90
2023-02-09T00:13:24.842Z,46.60
2023-02-09T00:15:58.162Z,47.80
2023-02-09T00:18:30.834Z,40.30
2023-02-09T00:21:03.491Z,46.50
2023-02-09T00:23:36.315Z,50.30
2023-02-09T00:26:10.019Z,46.40
2023-02-09T00:28:41.656Z,54.20
2023-02-09T00:31:14.277Z,47.20
2023-02-09T00:33:45.301Z,49.20
2023-02-09T00:36:16.669Z,48.70
2023-02-09T00:38:48.364Z,47.80
2023-02-09T00:41:42.144Z,50.70
2023-02-09T00:44:13.739Z,39.80
2023-02-09T00:46:45.802Z,49.50
2023-02-09T00:49:19.653Z,45.60
2023-02-09T00:51:50.930Z,48.30
2023-02-09T00:54:23.510Z,47.10
2023-02-09T00:56:54.926Z,50.20
2023-02-09T00:59:25.749Z,48.70
2023-02-09T01:01:57.014Z,57.20
2023-02-09T01:04:28.138Z,53.60
2023-02-09T01:06:58.898Z,53.00
2023-02-09T01:09:32.455Z,51.20
2023-02-09T01:12:03.422Z,48.00
2023-02-09T01:14:34.500Z,54.40
2023-02-09T01:17:06.056Z,51.00
2023-02-09T01:19:36.993Z,56.80
2023-02-09T01:22:20.624Z,55.70
2023-02-09T01:24:52.236Z,41.20
2023-02-09T01:27:28.233Z,56.60
2023-02-09T01:29:59.600Z,57.00
2023-02-09T01:32:30.314Z,55.30
2023-02-09T01:35:01.018Z,59.80
2023-02-09T01:37:35.604Z,57.60
2023-02-09T01:40:12.396Z,57.70
2023-02-09T01:42:43.591Z,60.00
2023-02-09T01:45:30.823Z,65.20
2023-02-09T01:48:04.213Z,57.10
2023-02-09T01:50:38.293Z,65.20
2023-02-09T01:53:10.537Z,64.30
2023-02-09T01:55:46.036Z,65.30
2023-02-09T01:58:21.080Z,56.70
2023-02-09T02:00:52.325Z,51.20
2023-02-09T02:03:28.536Z,58.20
2023-02-09T02:06:05.831Z,56.00
2023-02-09T02:08:41.480Z,48.50
2023-02-09T02:11:13.841Z,55.50
2023-02-09T02:13:45.502Z,53.60
2023-02-09T02:16:45.411Z,51.20
2023-02-09T02:19:56.155Z,53.20
2023-02-09T02:22:58.441Z,57.00
2023-02-09T02:26:00.394Z,56.10
2023-02-09T02:28:55.769Z,58.80
2023-02-09T02:32:00.091Z,57.80
2023-02-09T02:34:41.934Z,55.20
2023-02-09T02:37:22.205Z,54.10
2023-02-09T02:40:05.704Z,57.60
2023-02-09T02:42:49.177Z,49.00
2023-02-09T02:45:34.561Z,45.70
2023-02-09T02:48:17.182Z,49.90
2023-02-09T02:50:54.915Z,45.70
2023-02-09T02:53:33.369Z,50.60
2023-02-09T02:56:15.719Z,51.30
2023-02-09T02:58:49.508Z,49.80
2023-02-09T03:03:55.296Z,48.20
2023-02-09T03:06:26.918Z,49.30
2023-02-09T03:08:59.550Z,51.60
2023-02-09T03:11:36.051Z,51.40
2023-02-09T03:14:28.350Z,59.20
2023-02-09T03:17:14.512Z,60.10
2023-02-09T03:19:52.139Z,58.60
2023-02-09T03:22:31.091Z,53.70
2023-02-09T03:25:08.728Z,50.90
2023-02-09T03:27:46.037Z,52.00
2023-02-09T03:30:18.432Z,57.80
2023-02-09T03:32:55.738Z,55.00
2023-02-09T03:35:32.363Z,53.90
2023-02-09T03:38:02.015Z,54.00
2023-02-09T03:40:31.703Z,53.50
2023-02-09T03:43:01.256Z,52.00
2023-02-09T03:45:30.961Z,55.60
2023-02-09T03:48:01.238Z,55.20
2023-02-09T03:50:31.594Z,52.20
2023-02-09T03:53:01.273Z,55.00
2023-02-09T03:55:33.358Z,57.20
2023-02-09T03:58:04.000Z,56.30
2023-02-09T04:00:33.776Z,54.80
2023-02-09T04:03:03.555Z,53.60
2023-02-09T04:05:33.263Z,58.70
2023-02-09T04:08:02.690Z,60.90
2023-02-09T04:10:35.431Z,57.40
2023-02-09T04:13:05.282Z,60.40
2023-02-09T04:15:40.351Z,58.60
2023-02-09T04:18:09.939Z,55.20
2023-02-09T04:20:39.929Z,53.90
2023-02-09T04:23:09.551Z,54.90
2023-02-09T04:25:40.030Z,55.50
2023-02-09T04:28:10.197Z,63.00
2023-02-09T04:30:39.727Z,66.00
2023-02-09T04:33:10.522Z,59.00
2023-02-09T04:35:40.183Z,52.60
2023-02-09T04:38:09.817Z,53.80
2023-02-09T04:40:39.419Z,53.30
2023-02-09T04:43:10.280Z,58.80
2023-02-09T04:45:41.506Z,62.70
2023-02-09T04:48:14.200Z,63.60
2023-02-09T04:50:44.770Z,51.30
2023-02-09T04:53:15.143Z,59.40
2023-02-09T04:55:45.887Z,61.00
2023-02-09T04:58:35.911Z,59.90
2023-02-09T05:01:06.198Z,65.50
2023-02-09T05:03:35.972Z,64.30
2023-02-09T05:06:06.916Z,59.40
2023-02-09T05:08:38.207Z,63.30
2023-02-09T05:11:11.204Z,60.30
2023-02-09T05:13:41.331Z,64.00
2023-02-09T05:16:15.387Z,60.50
2023-02-09T05:18:45.424Z,65.90
2023-02-09T05:21:15.311Z,68.00
2023-02-09T05:23:44.990Z,55.40
2023-02-09T05:26:14.693Z,57.90
2023-02-09T05:28:44.352Z,58.60
2023-02-09T05:31:14.238Z,57.00
2023-02-09T05:33:43.877Z,55.80
2023-02-09T05:36:13.695Z,62.30
2023-02-09T05:38:43.839Z,59.90
2023-02-09T05:41:35.401Z,50.20
2023-02-09T05:44:05.635Z,52.90
2023-02-09T05:46:38.030Z,51.70
2023-02-09T05:49:09.897Z,49.90
2023-02-09T05:51:40.010Z,50.30
2023-02-09T05:54:10.417Z,54.20
2023-02-09T05:56:40.496Z,52.10
2023-02-09T05:59:10.969Z,54.30
2023-02-09T06:01:40.660Z,53.30
2023-02-09T06:04:11.051Z,52.90
2023-02-09T06:06:41.512Z,51.60
2023-02-09T06:09:11.561Z,49.70
2023-02-09T06:11:41.466Z,48.50
2023-02-09T06:14:11.524Z,50.00
2023-02-09T06:16:42.160Z,51.40
2023-02-09T06:19:14.232Z,59.80
2023-02-09T06:21:45.130Z,54.10
2023-02-09T06:24:16.809Z,55.60
2023-02-09T06:26:49.907Z,50.00
2023-02-09T06:29:20.316Z,56.10
2023-02-09T06:31:51.569Z,57.20
2023-02-09T06:34:21.345Z,55.30
2023-02-09T06:36:51.133Z,56.10
2023-02-09T06:39:20.967Z,60.70
2023-02-09T06:41:52.053Z,52.60
2023-02-09T06:44:22.122Z,53.50
2023-02-09T06:46:51.761Z,54.30
2023-02-09T06:49:24.093Z,56.50
2023-02-09T06:51:54.376Z,40.50
2023-02-09T06:54:25.232Z,58.10
2023-02-09T06:56:55.064Z,51.90
2023-02-09T06:59:25.278Z,58.10
2023-02-09T07:01:55.310Z,61.20
2023-02-09T07:04:25.005Z,60.90
2023-02-09T07:06:55.164Z,65.20
2023-02-09T07:09:24.962Z,63.30
2023-02-09T07:11:54.797Z,61.40
2023-02-09T07:14:24.753Z,60.90
2023-02-09T07:16:54.519Z,63.00
2023-02-09T07:19:24.416Z,57.20
2023-02-09T07:21:54.212Z,58.60
2023-02-09T07:24:24.636Z,57.60
2023-02-09T07:26:54.710Z,51.80
2023-02-09T07:29:24.696Z,43.90
2023-02-09T07:31:54.568Z,48.10
2023-02-09T07:34:24.838Z,54.20
2023-02-09T07:36:54.453Z,49.90
2023-02-09T07:39:24.556Z,49.10
2023-02-09T07:41:54.510Z,45.70
2023-02-09T07:44:25.769Z,48.70
2023-02-09T07:46:55.573Z,46.70
2023-02-09T07:49:25.248Z,48.60
2023-02-09T07:51:55.136Z,49.80
2023-02-09T07:54:24.699Z,43.30
2023-02-09T07:56:56.230Z,42.00
2023-02-09T07:59:25.987Z,45.30
2023-02-09T08:01:55.382Z,40.10
2023-02-09T08:04:25.183Z,45.20
2023-02-09T08:06:57.361Z,37.90
2023-02-09T08:09:28.754Z,43.00
2023-02-09T08:12:02.393Z,41.00
2023-02-09T08:14:39.225Z,43.30
2023-02-09T08:17:20.771Z,41.30
2023-02-09T08:19:53.607Z,43.50
2023-02-09T08:22:25.408Z,43.70
2023-02-09T08:24:55.072Z,43.70
2023-02-09T08:27:25.180Z,48.40
2023-02-09T08:29:55.054Z,43.20
2023-02-09T08:32:24.669Z,51.90
2023-02-09T08:34:54.291Z,52.60
2023-02-09T08:37:23.892Z,52.10
2023-02-09T08:39:53.721Z,49.80
2023-02-09T08:42:23.357Z,54.00
2023-02-09T08:44:52.869Z,63.10
2023-02-09T08:47:22.529Z,45.70
2023-02-09T08:49:52.444Z,56.60
2023-02-09T08:52:22.183Z,39.40
2023-02-09T08:54:51.654Z,56.00
2023-02-09T08:57:21.163Z,57.50
2023-02-09T08:59:50.695Z,50.40
2023-02-09T09:02:20.113Z,48.70
2023-02-09T09:04:49.606Z,72.70
2023-02-09T09:07:19.143Z,51.80
2023-02-09T09:09:48.573Z,55.00
2023-02-09T09:12:18.068Z,58.80
2023-02-09T09:14:47.832Z,57.40
2023-02-09T09:17:17.464Z,67.50
2023-02-09T09:19:46.926Z,43.40
2023-02-09T09:22:17.376Z,44.00
2023-02-09T09:24:46.808Z,43.70
2023-02-09T09:27:16.978Z,41.90
2023-02-09T09:29:47.006Z,41.80
2023-02-09T09:32:16.961Z,48.70
2023-02-09T09:34:46.806Z,47.00
2023-02-09T09:37:16.539Z,48.60
2023-02-09T09:39:46.024Z,56.90
2023-02-09T09:42:23.376Z,54.40
2023-02-09T09:44:54.478Z,55.70
2023-02-09T09:47:37.107Z,55.50
2023-02-09T09:50:16.640Z,49.90
2023-02-09T09:53:12.093Z,53.90
2023-02-09T09:55:42.236Z,52.50
2023-02-09T09:58:18.755Z,44.70
2023-02-09T10:00:49.215Z,47.30
2023-02-09T10:03:20.790Z,46.60
2023-02-09T10:05:52.759Z,47.60
2023-02-09T10:08:29.526Z,53.00
2023-02-09T10:11:04.082Z,49.80
2023-02-09T10:13:37.238Z,55.00
2023-02-09T10:16:17.199Z,53.00
2023-02-09T10:18:50.602Z,45.00
2023-02-09T10:21:21.335Z,47.00
2023-02-09T10:24:03.933Z,49.10
2023-02-09T10:26:35.912Z,45.30
2023-02-09T10:29:23.873Z,45.70
2023-02-09T10:32:00.194Z,45.40
2023-02-09T10:34:41.160Z,43.50
2023-02-09T10:37:19.919Z,45.50
2023-02-09T10:39:58.723Z,43.40
2023-02-09T10:42:32.964Z,42.40
2023-02-09T10:45:15.602Z,34.00
2023-02-09T10:47:59.116Z,33.60
2023-02-09T10:50:29.747Z,38.10
2023-02-09T10:53:01.912Z,34.20
2023-02-09T10:55:36.432Z,36.00
2023-02-09T10:58:14.433Z,40.20
2023-02-09T11:00:51.516Z,42.80
2023-02-09T11:03:24.819Z,43.50
2023-02-09T11:06:02.079Z,35.20
2023-02-09T11:08:42.206Z,39.80
2023-02-09T11:11:24.983Z,36.90
2023-02-09T11:13:54.848Z,40.60
2023-02-09T11:16:44.135Z,39.40
2023-02-09T11:19:28.506Z,40.40
2023-02-09T11:22:08.546Z,35.70
2023-02-09T11:24:51.445Z,33.60
2023-02-09T11:27:43.549Z,30.10
2023-02-09T11:30:28.610Z,33.80
2023-02-09T11:33:08.303Z,31.20
2023-02-09T11:35:48.084Z,31.80
2023-02-09T11:38:20.847Z,26.10
2023-02-09T11:40:54.088Z,23.30
2023-02-09T11:43:33.222Z,23.40
2023-02-09T11:46:11.809Z,23.50
2023-02-09T11:48:47.618Z,22.60
2023-02-09T11:51:25.975Z,26.90
2023-02-09T11:54:03.024Z,26.60
2023-02-09T11:56:41.880Z,23.20
2023-02-09T11:59:23.654Z,26.90
2023-02-09T12:02:02.706Z,26.90
2023-02-09T12:04:42.678Z,29.40
2023-02-09T12:07:21.064Z,25.00
2023-02-09T12:09:59.405Z,31.00
2023-02-09T12:12:36.020Z,26.10
2023-02-09T12:15:16.621Z,25.50
2023-02-09T12:17:52.111Z,28.50
2023-02-09T12:20:28.818Z,28.10
2023-02-09T12:23:07.389Z,30.40
2023-02-09T12:25:54.135Z,36.30
2023-02-09T12:28:43.073Z,29.40
2023-02-09T12:31:20.695Z,37.00
2023-02-09T12:34:14.930Z,34.40
2023-02-09T12:37:17.716Z,35.60
2023-02-09T12:40:23.362Z,46.90
2023-02-09T12:43:20.823Z,44.40
2023-02-09T12:46:29.423Z,34.80
2023-02-09T12:49:19.483Z,38.40
2023-02-09T12:52:12.880Z,40.20
2023-02-09T12:54:48.418Z,31.90
2023-02-09T12:57:53.163Z,30.20
2023-02-09T13:00:56.478Z,31.90
2023-02-09T13:03:27.181Z,32.10
2023-02-09T13:06:05.018Z,28.20
2023-02-09T13:08:45.921Z,36.00
2023-02-09T13:11:26.751Z,39.50
2023-02-09T13:13:58.782Z,40.20
2023-02-09T13:17:07.021Z,34.10
2023-02-09T13:20:07.597Z,38.00
2023-02-09T13:22:52.923Z,38.10
2023-02-09T13:25:32.049Z,39.80
2023-02-09T13:28:15.437Z,43.50
2023-02-09T13:30:46.361Z,34.10
2023-02-09T13:33:28.281Z,41.10
2023-02-09T13:36:23.912Z,43.00
2023-02-09T13:38:54.520Z,46.00
2023-02-09T13:41:32.304Z,40.00
2023-02-09T13:44:01.846Z,46.00
2023-02-09T13:46:34.900Z,44.10
2023-02-09T13:49:17.626Z,35.20
2023-02-09T13:51:50.196Z,43.20
2023-02-09T13:54:20.860Z,37.50
2023-02-09T13:56:51.764Z,41.70
2023-02-09T13:59:21.470Z,39.40
2023-02-09T14:01:51.616Z,43.30
2023-02-09T14:04:25.732Z,39.60
2023-02-09T14:07:03.763Z,35.60
2023-02-09T14:09:50.738Z,36.40
2023-02-09T14:12:49.376Z,37.40
2023-02-09T14:15:42.159Z,37.50
2023-02-09T14:18:32.590Z,39.70
2023-02-09T14:21:15.352Z,40.60
2023-02-09T14:23:48.589Z,42.90
2023-02-09T14:26:29.885Z,42.60
2023-02-09T14:29:17.865Z,36.80
2023-02-09T14:31:52.172Z,40.70
2023-02-09T14:34:35.135Z,47.30
2023-02-09T14:37:38.072Z,46.40
2023-02-09T14:40:25.059Z,49.40
2023-02-09T14:43:01.404Z,45.20
2023-02-09T14:45:40.094Z,44.20
2023-02-09T14:48:22.847Z,50.30
2023-02-09T14:50:57.837Z,52.00
2023-02-09T14:53:29.398Z,48.40
2023-02-09T14:56:02.153Z,47.00
2023-02-09T14:58:34.918Z,48.50
2023-02-09T15:01:09.130Z,48.80
2023-02-09T15:03:41.003Z,50.10
2023-02-09T15:06:17.074Z,49.60
2023-02-09T15:08:49.183Z,46.80
2023-02-09T15:11:42.927Z,52.30
2023-02-09T15:14:15.356Z,46.70
2023-02-09T15:16:45.552Z,48.00
2023-02-09T15:19:20.460Z,48.10
2023-02-09T15:22:06.231Z,53.00
2023-02-09T15:24:39.413Z,51.60
2023-02-09T15:27:24.810Z,49.60
2023-02-09T15:30:00.244Z,55.50
2023-02-09T15:32:34.095Z,51.30
2023-02-09T15:35:06.591Z,50.90
2023-02-09T15:37:43.909Z,40.40
2023-02-09T15:40:41.288Z,53.60
2023-02-09T15:43:35.019Z,48.30
2023-02-09T15:46:23.901Z,49.80
2023-02-09T15:48:53.501Z,52.10
2023-02-09T15:51:25.076Z,67.20
2023-02-09T15:53:56.823Z,51.80
2023-02-09T15:56:26.445Z,52.40
2023-02-09T15:58:58.513Z,54.30
2023-02-09T16:01:28.142Z,53.90
2023-02-09T16:04:08.401Z,50.70
2023-02-09T16:06:44.759Z,53.00
2023-02-09T16:09:18.630Z,53.00
2023-02-09T16:14:20.557Z,52.30
2023-02-09T16:16:50.953Z,49.10
2023-02-09T16:19:21.450Z,48.20
2023-02-09T16:21:55.918Z,54.60
2023-02-09T16:24:31.329Z,58.60
2023-02-09T16:27:01.906Z,58.80
2023-02-09T16:29:31.344Z,55.40
2023-02-09T16:32:00.840Z,53.90
2023-02-09T16:34:30.535Z,58.70
2023-02-09T16:37:01.712Z,53.20
2023-02-09T16:39:32.394Z,53.90
2023-02-09T16:42:08.775Z,67.60
2023-02-09T16:44:38.755Z,55.60
2023-02-09T16:47:17.292Z,48.40
2023-02-09T16:49:59.222Z,56.60
2023-02-09T16:52:30.371Z,51.10
2023-02-09T16:55:05.727Z,53.20
2023-02-09T16:57:35.877Z,56.70
2023-02-09T17:00:13.457Z,58.60
2023-02-09T17:02:45.795Z,56.00
2023-02-09T17:05:21.956Z,54.80
2023-02-09T17:07:55.553Z,57.20
2023-02-09T17:10:29.659Z,59.30
2023-02-09T17:15:31.038Z,61.60
2023-02-09T17:18:04.874Z,58.10
2023-02-09T17:20:38.931Z,44.00
2023-02-09T17:23:13.555Z,58.30
2023-02-09T17:26:01.678Z,51.20
2023-02-09T17:28:42.876Z,57.10
2023-02-09T17:31:19.505Z,60.40
2023-02-09T17:33:51.490Z,58.30
2023-02-09T17:36:26.949Z,56.40
2023-02-09T17:38:58.985Z,54.50
2023-02-09T17:41:32.660Z,57.40
2023-02-09T17:47:05.859Z,55.20
2023-02-09T17:49:39.378Z,52.50
2023-02-09T17:52:21.379Z,61.00
2023-02-09T17:54:51.279Z,53.20
2023-02-09T17:57:25.486Z,53.70
2023-02-09T17:59:55.815Z,60.80
2023-02-09T18:02:25.932Z,49.70
2023-02-09T18:04:56.895Z,50.70
2023-02-09T18:07:26.488Z,48.00
2023-02-09T18:09:56.305Z,47.50
2023-02-09T18:12:27.112Z,49.10
2023-02-09T18:14:56.765Z,47.50
2023-02-09T18:17:28.619Z,48.70
2023-02-09T18:19:59.692Z,45.80
2023-02-09T18:22:30.582Z,48.90
2023-02-09T18:25:00.779Z,47.90
2023-02-09T18:27:30.266Z,42.20
2023-02-09T18:29:59.830Z,39.70
2023-02-09T18:32:32.155Z,41.80
2023-02-09T18:35:02.323Z,40.30
2023-02-09T18:37:32.424Z,39.10
2023-02-09T18:40:01.902Z,43.50
2023-02-09T18:42:31.452Z,43.00
2023-02-09T18:45:01.102Z,37.80
2023-02-09T18:47:31.250Z,39.60
2023-02-09T18:50:00.911Z,39.50
2023-02-09T18:52:30.898Z,41.60
2023-02-09T18:55:00.866Z,36.80
2023-02-09T18:57:34.225Z,40.00
2023-02-09T19:00:08.430Z,36.40
2023-02-09T19:02:40.445Z,36.30
2023-02-09T19:05:13.302Z,34.90
2023-02-09T19:07:46.364Z,32.80
2023-02-09T19:10:20.963Z,33.50
2023-02-09T19:15:26.623Z,31.90
2023-02-09T19:17:59.983Z,32.60
2023-02-09T19:20:34.919Z,36.30
2023-02-09T19:23:08.985Z,32.90
2023-02-09T19:25:42.256Z,39.00
2023-02-09T19:28:12.382Z,41.50
2023-02-09T19:30:44.259Z,40.50
2023-02-09T19:33:14.336Z,41.60
2023-02-09T19:35:47.274Z,39.40
2023-02-09T19:38:20.384Z,41.70
2023-02-09T19:41:05.132Z,43.60
2023-02-09T19:43:39.829Z,49.30
2023-02-09T19:46:11.950Z,49.40
2023-02-09T19:48:45.446Z,54.80
2023-02-09T19:51:18.363Z,54.20
2023-02-09T19:53:52.617Z,51.80
2023-02-09T19:56:25.745Z,56.80
2023-02-09T19:58:56.358Z,55.40
2023-02-09T20:01:30.108Z,61.00
2023-02-09T20:04:03.080Z,60.20
2023-02-09T20:06:33.866Z,58.00
2023-02-09T20:09:08.580Z,55.70
2023-02-09T20:11:44.967Z,58.30
2023-02-09T20:14:17.069Z,48.50
2023-02-09T20:16:49.600Z,55.60
2023-02-09T20:19:22.312Z,50.90
2023-02-09T20:21:52.465Z,36.40
2023-02-09T20:24:25.017Z,37.90
2023-02-09T20:26:57.195Z,43.70
2023-02-09T20:29:29.494Z,43.60
2023-02-09T20:32:01.102Z,45.50
2023-02-09T20:34:33.465Z,38.70
2023-02-09T20:37:06.424Z,39.80
2023-02-09T20:39:38.875Z,35.90
2023-02-09T20:42:32.548Z,33.80
2023-02-09T20:45:23.033Z,43.70
2023-02-09T20:47:55.737Z,38.00
2023-02-09T20:50:29.724Z,39.80
2023-02-09T20:53:03.092Z,38.00
2023-02-09T20:55:35.834Z,38.20
2023-02-09T20:58:08.030Z,36.90
2023-02-09T21:00:38.364Z,36.20
2023-02-09T21:03:10.595Z,38.00
2023-02-09T21:05:41.190Z,41.70
2023-02-09T21:08:13.273Z,36.80
2023-02-09T21:10:45.892Z,41.90
2023-02-09T21:13:16.393Z,28.60
2023-02-09T21:15:46.102Z,38.50
2023-02-09T21:18:17.212Z,34.60
2023-02-09T21:20:47.193Z,33.90
2023-02-09T21:23:17.073Z,39.70
2023-02-09T21:25:47.212Z,39.70
2023-02-09T21:28:17.970Z,45.30
2023-02-09T21:30:47.999Z,42.70
2023-02-09T21:33:19.572Z,46.20
2023-02-09T21:35:50.602Z,48.90
2023-02-09T21:38:21.728Z,50.30
2023-02-09T21:40:52.604Z,46.60
2023-02-09T21:43:25.273Z,49.80
2023-02-09T21:45:55.734Z,47.80
2023-02-09T21:48:25.720Z,41.60
2023-02-09T21:50:55.629Z,41.20
2023-02-09T21:53:25.419Z,45.80
2023-02-09T21:55:54.928Z,41.90
2023-02-09T21:58:24.729Z,37.60
2023-02-09T22:00:59.069Z,40.80
2023-02-09T22:03:29.179Z,40.10
2023-02-09T22:05:59.326Z,42.20
2023-02-09T22:08:30.411Z,46.00
2023-02-09T22:11:01.732Z,43.60
2023-02-09T22:13:31.934Z,41.20
2023-02-09T22:16:05.364Z,46.60
2023-02-09T22:18:35.433Z,41.70
2023-02-09T22:21:09.095Z,38.50
2023-02-09T22:26:08.433Z,40.90
2023-02-09T22:28:38.248Z,40.90
2023-02-09T22:31:10.434Z,42.20
2023-02-09T22:33:48.060Z,47.20
2023-02-09T22:36:19.065Z,51.90
2023-02-09T22:38:50.026Z,50.50
2023-02-09T22:41:23.866Z,55.70
2023-02-09T23:05:48.589Z,61.70
2023-02-09T23:08:18.266Z,68.30
2023-02-09T23:10:49.511Z,60.10
2023-02-09T23:13:19.040Z,69.60
2023-02-09T23:15:48.589Z,73.10
2023-02-09T23:18:18.222Z,80.80
2023-02-09T23:20:48.640Z,70.60
2023-02-09T23:23:17.928Z,70.00
2023-02-09T23:25:51.216Z,69.50
2023-02-09T23:30:49.728Z,52.30
2023-02-09T23:33:19.237Z,52.00
2023-02-09T23:35:48.829Z,57.40
2023-02-09T23:38:19.575Z,51.60
2023-02-09T23:40:48.964Z,55.20
2023-02-09T23:43:18.342Z,61.90
2023-02-09T23:45:47.595Z,55.00
2023-02-09T23:48:17.074Z,47.80
2023-02-09T23:50:47.741Z,42.00
2023-02-09T23:53:17.335Z,39.20
2023-02-09T23:55:52.392Z,38.40
2023-02-09T23:58:21.925Z,33.30
